Bolivar, OH (44612)

6:28 AM EST on January 18, 2017 (GMT -0500)
MOH076 | | Change Station

Elev 905 ft 40.65 °N, 81.45 °W | Updated 14 minutes ago

Overcast
Overcast
41.0 °F
Feels Like 37 °F
N
6.0
Wind Variable Wind from West
Gusts 12.0 mph

Today
High -- | Low -- °F
--% Chance of Precip.
Yesterday
High -- | Low -- °F
Precip. -- in
Pressure 30.04 in
Visibility 10.0 miles
Clouds Scattered Clouds 1400 ft
Mostly Cloudy 2500 ft
Overcast 4000 ft
Windchill 37 °F
Dew Point 37 °F
Humidity 86%
Rainfall 0.07 in
Snow Depth Not available.
7:45 AM 5:27 PM
Waning Gibbous, 64% visible
SPECI KPHD 181125Z AUTO 28010G21KT 10SM SCT014 BKN025 OVC040 05/02 A3004 RMK AO2 T00500022
Pressure 30.04 in
Visibility 10.0 miles
Clouds Scattered Clouds 1400 ft
Mostly Cloudy 2500 ft
Overcast 4000 ft
Windchill 37 °F
Dew Point 37 °F
Humidity 86%
Rainfall 0.07 in
Snow Depth Not available.
7:45 AM 5:27 PM
Waning Gibbous, 64% visible
SPECI KPHD 181125Z AUTO 28010G21KT 10SM SCT014 BKN025 OVC040 05/02 A3004 RMK AO2 T00500022

Get Your Daily Forecast Email!

Thanks for signing up!

Be on the lookout for a verification email in your inbox.

You'll start receiving the daily forecast at 8 AM.

×

10-Day Weather Forecast

Almanac

Astronomy

Jan. 18, 2017 Rise Set
Actual Time
Civil Twilight
Nautical Twilight
Astronomical Twilight
Moon
Length of Visible Light
Length of Day
Tomorrow will be .
, % of the Moon is Illuminated

Today's Extremes

State Highs State Lows

Community

WunderPhotos

Upload Photos

1,962,540 photos uploaded!

WunderBlog® & News

Nearby

Air Quality

  Air Quality AQ Index Pollutant
Not available.

Snow Depth

Station Depth Elevation

Earthquake Activity

City Distance Mag. Time & Date
Minimum magnitude displayed is 2.5.

Coastal Water Temperatures

Place Temperature

Stations

Nearby Weather Stations

Station Location Temp. Windchill Dew Point Humidity Wind Precip. Elev Updated Type
                   

Watches & Warnings

There are currently no watches in effect.